createdAt,value
2023-03-27T00:01:45.357Z,35.70
2023-03-27T00:04:19.206Z,40.87
2023-03-27T00:06:49.551Z,43.87
2023-03-27T00:09:19.537Z,45.03
2023-03-27T00:11:52.272Z,43.73
2023-03-27T00:14:20.588Z,39.90
2023-03-27T00:16:49.008Z,34.03
2023-03-27T00:19:23.818Z,30.57
2023-03-27T00:21:52.555Z,31.27
2023-03-27T00:24:22.818Z,31.93
2023-03-27T00:26:52.567Z,32.67
2023-03-27T00:29:21.800Z,31.00
2023-03-27T00:31:49.879Z,29.83
2023-03-27T00:34:18.328Z,27.13
2023-03-27T00:36:51.414Z,27.97
2023-03-27T00:39:21.020Z,28.63
2023-03-27T00:41:49.394Z,25.77
2023-03-27T00:44:24.633Z,34.27
2023-03-27T00:46:55.107Z,32.70
2023-03-27T00:49:24.737Z,32.83
2023-03-27T00:51:53.677Z,32.33
2023-03-27T00:54:30.248Z,44.63
2023-03-27T00:57:02.457Z,36.27
2023-03-27T00:59:37.900Z,34.40
2023-03-27T01:02:13.400Z,34.03
2023-03-27T01:04:43.241Z,37.47
2023-03-27T01:07:12.587Z,33.13
2023-03-27T01:09:41.752Z,36.70
2023-03-27T01:12:28.101Z,34.53
2023-03-27T01:15:13.908Z,33.00
2023-03-27T01:17:59.566Z,30.70
2023-03-27T01:21:18.044Z,31.60
2023-03-27T01:24:03.508Z,27.27
2023-03-27T01:26:58.388Z,29.43
2023-03-27T01:29:54.556Z,29.30
2023-03-27T01:32:48.362Z,26.97
2023-03-27T01:35:45.996Z,29.17
2023-03-27T01:38:41.137Z,24.73
2023-03-27T01:41:27.517Z,25.57
2023-03-27T01:44:08.662Z,27.67
2023-03-27T01:46:43.874Z,26.63
2023-03-27T01:49:31.425Z,26.43
2023-03-27T01:52:03.808Z,26.60
2023-03-27T01:54:34.626Z,27.07
2023-03-27T01:57:18.239Z,30.53
2023-03-27T01:59:50.457Z,30.03
2023-03-27T02:02:30.278Z,35.30
2023-03-27T02:05:05.608Z,30.57
2023-03-27T02:07:39.960Z,32.93
2023-03-27T02:10:12.317Z,33.33
2023-03-27T02:12:51.254Z,34.87
2023-03-27T02:15:22.571Z,38.00
2023-03-27T02:17:58.111Z,41.83
2023-03-27T02:20:26.175Z,41.80
2023-03-27T02:22:55.827Z,50.77
2023-03-27T02:25:37.163Z,57.60
2023-03-27T02:28:26.540Z,66.20
2023-03-27T02:31:06.821Z,67.13
2023-03-27T02:34:16.243Z,71.93
2023-03-27T02:36:49.984Z,78.27
2023-03-27T02:39:34.402Z,82.87
2023-03-27T02:42:14.716Z,78.10
2023-03-27T02:44:51.947Z,71.37
2023-03-27T02:47:28.809Z,74.10
2023-03-27T02:50:02.376Z,73.40
2023-03-27T02:52:37.383Z,81.73
2023-03-27T02:55:10.821Z,73.40
2023-03-27T02:57:51.642Z,81.90
2023-03-27T03:00:26.156Z,83.67
2023-03-27T03:03:09.714Z,82.67
2023-03-27T03:05:42.455Z,64.70
2023-03-27T03:08:10.858Z,57.90
2023-03-27T03:10:46.238Z,59.90
2023-03-27T03:13:17.853Z,46.80
2023-03-27T03:15:50.634Z,56.67
2023-03-27T03:18:19.446Z,52.40
2023-03-27T03:20:47.360Z,62.93
2023-03-27T03:23:19.329Z,67.80
2023-03-27T03:25:51.198Z,76.00
2023-03-27T03:28:20.927Z,57.60
2023-03-27T03:31:11.155Z,44.87
2023-03-27T03:33:40.906Z,45.80
2023-03-27T03:36:09.897Z,44.43
2023-03-27T03:38:42.668Z,40.57
2023-03-27T03:41:12.433Z,34.40
2023-03-27T03:43:46.466Z,34.63
2023-03-27T03:46:16.082Z,32.03
2023-03-27T03:48:44.592Z,31.10
2023-03-27T03:51:12.684Z,27.77
2023-03-27T03:53:40.930Z,29.10
2023-03-27T03:56:09.475Z,28.60
2023-03-27T03:58:41.930Z,32.53
2023-03-27T04:01:12.390Z,28.10
2023-03-27T04:03:41.821Z,34.07
2023-03-27T04:06:11.273Z,34.07
2023-03-27T04:08:43.352Z,39.73
2023-03-27T04:11:16.198Z,37.97
2023-03-27T04:13:47.072Z,34.53
2023-03-27T04:16:15.725Z,39.00
2023-03-27T04:18:44.666Z,35.10
2023-03-27T04:21:15.014Z,37.97
2023-03-27T04:23:48.254Z,34.00
2023-03-27T04:26:17.538Z,38.27
2023-03-27T04:28:45.860Z,45.53
2023-03-27T04:31:21.177Z,35.87
2023-03-27T04:33:52.623Z,31.80
2023-03-27T04:36:21.383Z,35.20
2023-03-27T04:38:50.287Z,35.87
2023-03-27T04:41:30.008Z,43.23
2023-03-27T04:43:58.188Z,46.20
2023-03-27T04:46:31.959Z,42.77
2023-03-27T04:49:00.287Z,43.33
2023-03-27T04:51:32.954Z,41.47
2023-03-27T04:54:09.508Z,33.73
2023-03-27T04:56:38.327Z,35.07
2023-03-27T04:59:06.532Z,34.77
2023-03-27T05:01:36.260Z,32.33
2023-03-27T05:04:04.879Z,33.63
2023-03-27T05:06:33.732Z,31.80
2023-03-27T05:09:03.849Z,33.27
2023-03-27T05:11:33.366Z,31.27
2023-03-27T05:14:04.822Z,33.43
2023-03-27T05:16:36.261Z,36.80
2023-03-27T05:19:04.342Z,38.70
2023-03-27T05:21:34.042Z,31.50
2023-03-27T05:24:02.872Z,32.00
2023-03-27T05:26:31.357Z,29.43
2023-03-27T05:29:01.978Z,33.23
2023-03-27T05:31:30.390Z,33.03
2023-03-27T05:34:00.383Z,36.97
2023-03-27T05:36:29.933Z,39.73
2023-03-27T05:38:58.594Z,39.00
2023-03-27T05:41:27.851Z,42.53
2023-03-27T05:44:01.742Z,40.93
2023-03-27T05:46:34.355Z,43.63
2023-03-27T05:49:02.780Z,34.60
2023-03-27T05:51:31.932Z,40.07
2023-03-27T05:53:59.871Z,36.53
2023-03-27T05:56:28.234Z,40.07
2023-03-27T05:58:59.925Z,38.50
2023-03-27T06:01:28.349Z,43.70
2023-03-27T06:03:56.667Z,37.47
2023-03-27T06:06:25.116Z,41.97
2023-03-27T06:08:54.095Z,48.65
2023-03-27T06:11:26.746Z,49.25
2023-03-27T06:13:55.797Z,53.67
2023-03-27T06:16:24.370Z,49.30
2023-03-27T06:18:52.709Z,48.83
2023-03-27T06:21:22.756Z,48.53
2023-03-27T06:23:50.773Z,44.03
2023-03-27T06:26:21.346Z,46.40
2023-03-27T06:28:50.296Z,40.93
2023-03-27T06:31:20.379Z,41.23
2023-03-27T06:33:49.389Z,41.53
2023-03-27T06:36:18.421Z,40.70
2023-03-27T06:38:52.333Z,41.63
2023-03-27T06:41:20.774Z,38.30
2023-03-27T06:43:49.557Z,48.07
2023-03-27T06:46:17.637Z,51.63
2023-03-27T06:48:45.878Z,44.93
2023-03-27T06:51:18.057Z,36.90
2023-03-27T06:53:47.074Z,41.43
2023-03-27T06:56:15.326Z,47.70
2023-03-27T06:58:46.493Z,45.57
2023-03-27T07:01:14.945Z,45.83
2023-03-27T07:03:44.646Z,40.10
2023-03-27T07:06:13.238Z,41.27
2023-03-27T07:08:41.854Z,32.80
2023-03-27T07:11:12.478Z,29.60
2023-03-27T07:13:42.853Z,31.53
2023-03-27T07:16:14.119Z,33.63
2023-03-27T07:18:42.922Z,49.73
2023-03-27T07:21:15.599Z,34.40
2023-03-27T07:23:43.696Z,35.90
2023-03-27T07:26:11.645Z,30.73
2023-03-27T07:28:40.169Z,34.10
2023-03-27T07:31:32.645Z,35.53
2023-03-27T07:34:06.501Z,42.20
2023-03-27T07:36:35.310Z,41.83
2023-03-27T07:39:07.237Z,38.87
2023-03-27T07:41:38.925Z,42.90
2023-03-27T07:44:17.841Z,34.57
2023-03-27T07:46:52.568Z,34.53
2023-03-27T07:49:38.741Z,34.50
2023-03-27T07:52:09.470Z,31.83
2023-03-27T07:54:38.882Z,29.50
2023-03-27T07:57:13.152Z,26.80
2023-03-27T07:59:41.911Z,36.17
2023-03-27T08:02:10.877Z,28.63
2023-03-27T08:04:40.121Z,30.40
2023-03-27T08:07:08.430Z,20.83
2023-03-27T08:09:36.696Z,19.13
2023-03-27T08:12:08.070Z,27.43
2023-03-27T08:14:36.106Z,31.00
2023-03-27T08:17:15.721Z,27.30
2023-03-27T08:19:47.413Z,25.53
2023-03-27T08:22:16.570Z,27.97
2023-03-27T08:24:48.264Z,31.00
2023-03-27T08:27:17.845Z,27.87
2023-03-27T08:29:46.422Z,29.47
2023-03-27T08:32:15.033Z,29.10
2023-03-27T08:34:43.610Z,33.70
2023-03-27T08:37:11.434Z,32.17
2023-03-27T08:39:39.827Z,29.03
2023-03-27T08:42:13.703Z,29.13
2023-03-27T08:44:42.379Z,31.87
2023-03-27T08:47:14.165Z,24.57
2023-03-27T08:49:48.716Z,23.13
2023-03-27T08:52:25.078Z,13.60
2023-03-27T08:54:59.817Z,12.73
2023-03-27T08:57:28.673Z,14.30
2023-03-27T08:59:59.938Z,13.83
2023-03-27T09:02:34.043Z,65.37
2023-03-27T09:05:45.654Z,15.90
2023-03-27T09:08:28.018Z,10.27
2023-03-27T09:11:41.863Z,9.93
2023-03-27T09:14:33.265Z,8.50
2023-03-27T09:17:31.310Z,11.37
2023-03-27T09:20:13.054Z,7.40
2023-03-27T09:22:56.550Z,6.40
2023-03-27T09:25:32.952Z,5.70
2023-03-27T09:28:01.788Z,7.13
2023-03-27T09:30:32.908Z,7.53
2023-03-27T09:33:07.255Z,3.97
2023-03-27T09:35:39.078Z,5.03
2023-03-27T09:38:17.442Z,6.37
2023-03-27T09:40:54.711Z,9.57
2023-03-27T09:43:26.726Z,6.93
2023-03-27T09:45:55.918Z,7.83
2023-03-27T09:48:41.019Z,4.10
2023-03-27T09:51:39.546Z,6.50
2023-03-27T09:54:08.601Z,5.90
2023-03-27T09:57:05.327Z,7.00
2023-03-27T09:59:39.063Z,8.80
2023-03-27T10:02:19.453Z,6.33
2023-03-27T10:05:04.750Z,30.77
2023-03-27T10:07:34.337Z,14.17
2023-03-27T10:10:15.934Z,5.00
2023-03-27T10:12:44.738Z,4.60
2023-03-27T10:15:34.307Z,11.63
2023-03-27T10:18:07.025Z,5.33
2023-03-27T10:20:57.662Z,8.93
2023-03-27T10:23:30.773Z,9.53
2023-03-27T10:26:04.752Z,6.50
2023-03-27T10:28:37.096Z,8.93
2023-03-27T10:31:15.347Z,9.40
2023-03-27T10:33:43.752Z,21.30
2023-03-27T10:36:12.521Z,5.60
2023-03-27T10:38:41.421Z,4.47
2023-03-27T10:41:14.688Z,4.80
2023-03-27T10:43:45.262Z,8.10
2023-03-27T10:46:20.493Z,6.43
2023-03-27T10:49:15.147Z,2.30
2023-03-27T10:52:14.658Z,3.87
2023-03-27T10:55:09.022Z,3.77
2023-03-27T10:57:38.429Z,4.27
2023-03-27T11:00:41.261Z,4.93
2023-03-27T11:03:27.832Z,2.37
2023-03-27T11:05:57.646Z,1.43
2023-03-27T11:08:47.065Z,5.43
2023-03-27T11:11:26.059Z,2.97
2023-03-27T11:14:04.084Z,3.03
2023-03-27T11:16:42.170Z,7.10
2023-03-27T11:19:11.386Z,2.80
2023-03-27T11:21:46.826Z,2.77
2023-03-27T11:24:31.456Z,3.73
2023-03-27T11:27:15.899Z,3.20
2023-03-27T11:30:04.918Z,4.03
2023-03-27T11:33:08.076Z,3.10
2023-03-27T11:35:50.473Z,9.40
2023-03-27T11:38:31.955Z,2.77
2023-03-27T11:41:05.017Z,3.40
2023-03-27T11:43:34.038Z,9.60
2023-03-27T11:46:36.845Z,2.93
2023-03-27T11:49:15.163Z,2.47
2023-03-27T11:51:57.809Z,3.33
2023-03-27T11:54:38.725Z,2.63
2023-03-27T11:57:13.728Z,3.67
2023-03-27T11:59:57.532Z,3.10
2023-03-27T12:02:49.659Z,2.30
2023-03-27T12:05:58.700Z,7.83
2023-03-27T12:08:37.358Z,6.10
2023-03-27T12:11:06.797Z,4.37
2023-03-27T12:14:00.559Z,6.83
2023-03-27T12:16:48.866Z,5.20
2023-03-27T12:19:28.961Z,6.33
2023-03-27T12:22:29.993Z,5.70
2023-03-27T12:25:17.316Z,1.93
2023-03-27T12:28:01.807Z,3.17
2023-03-27T12:30:34.108Z,3.77
2023-03-27T12:33:46.831Z,4.47
2023-03-27T12:36:18.912Z,4.30
2023-03-27T12:38:48.075Z,6.70
2023-03-27T12:41:33.852Z,2.43
2023-03-27T12:44:04.639Z,7.47
2023-03-27T12:46:39.949Z,4.13
2023-03-27T12:49:16.608Z,2.10
2023-03-27T12:51:53.815Z,5.10
2023-03-27T12:54:28.235Z,6.30
2023-03-27T12:56:59.225Z,3.47
2023-03-27T12:59:29.043Z,5.03
2023-03-27T13:02:07.003Z,1.43
2023-03-27T13:04:48.120Z,3.53
2023-03-27T13:07:34.883Z,1.33
2023-03-27T13:10:24.684Z,1.90
2023-03-27T13:12:56.072Z,1.50
2023-03-27T13:15:58.837Z,1.20
2023-03-27T13:19:29.136Z,7.67
2023-03-27T13:22:10.134Z,1.73
2023-03-27T13:25:08.164Z,4.20
2023-03-27T13:28:28.945Z,2.30
2023-03-27T13:31:01.361Z,1.23
2023-03-27T13:33:30.415Z,1.90
2023-03-27T13:36:03.149Z,2.37
2023-03-27T13:38:53.153Z,2.20
2023-03-27T13:41:45.628Z,2.20
2023-03-27T13:44:40.330Z,3.23
2023-03-27T13:47:33.769Z,6.40
2023-03-27T13:50:31.591Z,6.27
2023-03-27T13:53:39.745Z,7.47
2023-03-27T13:56:23.351Z,2.43
2023-03-27T13:59:28.641Z,2.13
2023-03-27T14:02:27.490Z,1.77
2023-03-27T14:05:36.913Z,7.80
2023-03-27T14:08:20.272Z,3.83
2023-03-27T14:11:10.302Z,5.30
2023-03-27T14:13:54.213Z,5.43
2023-03-27T14:16:39.584Z,7.43
2023-03-27T14:19:43.557Z,28.73
2023-03-27T14:22:24.738Z,6.70
2023-03-27T14:25:03.343Z,4.80
2023-03-27T14:27:34.928Z,6.00
2023-03-27T14:30:09.558Z,8.07
2023-03-27T14:32:50.266Z,8.10
2023-03-27T14:35:38.185Z,3.97
2023-03-27T14:38:22.902Z,3.40
2023-03-27T14:40:53.012Z,6.43
2023-03-27T14:43:22.408Z,5.33
2023-03-27T14:45:52.766Z,5.27
2023-03-27T14:48:22.855Z,4.40
2023-03-27T14:50:53.716Z,2.67
2023-03-27T14:53:28.353Z,8.93
2023-03-27T14:56:00.931Z,4.40
2023-03-27T14:58:29.959Z,9.67
2023-03-27T15:01:05.634Z,4.00
2023-03-27T15:03:38.307Z,57.37
2023-03-27T15:06:19.805Z,8.30
2023-03-27T15:08:56.047Z,5.90
2023-03-27T15:11:39.390Z,2.93
2023-03-27T15:14:22.735Z,4.30
2023-03-27T15:16:58.575Z,4.27
2023-03-27T15:19:32.421Z,5.00
2023-03-27T15:22:03.578Z,3.07
2023-03-27T15:24:34.874Z,7.37
2023-03-27T15:27:08.354Z,4.73
2023-03-27T15:29:50.961Z,5.90
2023-03-27T15:32:22.448Z,5.63
2023-03-27T15:34:57.176Z,5.07
2023-03-27T15:37:28.858Z,7.60
2023-03-27T15:40:10.728Z,5.53
2023-03-27T15:42:52.619Z,4.80
2023-03-27T15:45:23.543Z,4.13
2023-03-27T15:48:08.680Z,5.43
2023-03-27T15:50:38.155Z,5.03
2023-03-27T15:53:09.623Z,3.40
2023-03-27T15:55:45.238Z,8.60
2023-03-27T15:58:43.267Z,3.13
2023-03-27T16:01:36.472Z,4.50
2023-03-27T16:04:19.146Z,9.00
2023-03-27T16:06:53.553Z,10.93
2023-03-27T16:09:28.991Z,10.23
2023-03-27T16:11:59.245Z,7.23
2023-03-27T16:14:32.301Z,12.23
2023-03-27T16:17:21.199Z,10.60
2023-03-27T16:20:01.307Z,13.53
2023-03-27T16:22:34.946Z,12.27
2023-03-27T16:25:11.141Z,10.33
2023-03-27T16:27:46.799Z,10.63
2023-03-27T16:30:37.436Z,11.17
2023-03-27T16:33:15.954Z,24.97
2023-03-27T16:35:45.816Z,26.03
2023-03-27T16:38:14.742Z,28.67
2023-03-27T16:40:48.401Z,17.50
2023-03-27T16:43:17.598Z,15.47
2023-03-27T16:45:50.617Z,21.50
2023-03-27T16:48:19.954Z,17.70
2023-03-27T16:50:48.186Z,19.37
2023-03-27T16:53:18.602Z,19.17
2023-03-27T16:55:47.367Z,29.43
2023-03-27T16:58:15.647Z,33.23
2023-03-27T17:00:43.775Z,30.80
2023-03-27T17:03:12.495Z,24.17
2023-03-27T17:05:43.626Z,20.27
2023-03-27T17:08:13.457Z,25.23
2023-03-27T17:10:46.447Z,20.33
2023-03-27T17:13:15.283Z,34.83
2023-03-27T17:15:44.023Z,19.43
2023-03-27T17:18:12.488Z,20.83
2023-03-27T17:20:43.256Z,12.00
2023-03-27T17:23:16.056Z,14.13
2023-03-27T17:25:45.032Z,16.93
2023-03-27T17:28:15.004Z,17.83
2023-03-27T17:30:56.650Z,17.33
2023-03-27T17:33:29.904Z,17.87
2023-03-27T17:35:59.352Z,19.73
2023-03-27T17:38:28.076Z,18.57
2023-03-27T17:40:56.488Z,22.27
2023-03-27T17:43:25.471Z,19.57
2023-03-27T17:45:55.434Z,19.40
2023-03-27T17:48:23.977Z,22.23
2023-03-27T17:51:08.166Z,19.43
2023-03-27T17:53:40.342Z,22.20
2023-03-27T17:56:10.308Z,18.57
2023-03-27T17:58:38.979Z,26.37
2023-03-27T18:01:19.331Z,31.27
2023-03-27T18:03:47.765Z,30.23
2023-03-27T18:06:19.521Z,28.80
2023-03-27T18:08:47.637Z,24.67
2023-03-27T18:11:17.201Z,27.57
2023-03-27T18:13:51.587Z,16.07
2023-03-27T18:16:23.439Z,20.20
2023-03-27T18:18:55.983Z,24.03
2023-03-27T18:21:25.187Z,30.27
2023-03-27T18:23:59.670Z,31.63
2023-03-27T18:26:28.303Z,34.37
2023-03-27T18:29:04.524Z,28.47
2023-03-27T18:31:33.512Z,30.93
2023-03-27T18:34:02.188Z,29.07
2023-03-27T18:36:30.378Z,21.33
2023-03-27T18:39:01.289Z,21.77
2023-03-27T18:41:30.750Z,19.47
2023-03-27T18:43:59.005Z,19.60
2023-03-27T18:46:27.840Z,20.23
2023-03-27T18:49:00.652Z,26.70
2023-03-27T18:51:32.083Z,22.30
2023-03-27T18:54:02.701Z,19.43
2023-03-27T18:56:31.169Z,20.70
2023-03-27T18:58:59.380Z,22.23
2023-03-27T19:01:27.498Z,20.33
2023-03-27T19:03:55.777Z,18.50
2023-03-27T19:06:27.551Z,57.87
2023-03-27T19:08:56.366Z,31.23
2023-03-27T19:11:24.818Z,35.10
2023-03-27T19:13:53.011Z,32.40
2023-03-27T19:16:21.095Z,33.77
2023-03-27T19:18:49.511Z,25.70
2023-03-27T19:21:17.947Z,20.67
2023-03-27T19:23:46.482Z,19.83
2023-03-27T19:26:22.152Z,18.70
2023-03-27T19:28:50.252Z,19.40
2023-03-27T19:31:19.167Z,20.03
2023-03-27T19:33:47.341Z,21.27
2023-03-27T19:36:16.670Z,20.33
2023-03-27T19:38:46.094Z,15.37
2023-03-27T19:41:15.531Z,18.60
2023-03-27T19:43:46.119Z,20.03
2023-03-27T19:46:20.108Z,13.93
2023-03-27T19:48:50.072Z,12.63
2023-03-27T19:51:18.315Z,16.67
2023-03-27T19:53:47.018Z,14.23
2023-03-27T19:56:15.111Z,14.60
2023-03-27T19:58:43.252Z,10.43
2023-03-27T20:01:12.559Z,16.70
2023-03-27T20:03:42.753Z,12.37
2023-03-27T20:06:19.058Z,10.13
2023-03-27T20:08:48.016Z,16.30
2023-03-27T20:11:16.049Z,12.17
2023-03-27T20:13:55.484Z,12.83
2023-03-27T20:16:29.869Z,14.07
2023-03-27T20:19:06.520Z,13.90
2023-03-27T20:21:40.773Z,14.47
2023-03-27T20:24:12.646Z,14.13
2023-03-27T20:26:42.500Z,14.57
2023-03-27T20:29:19.015Z,9.83
2023-03-27T20:31:48.508Z,9.57
2023-03-27T20:34:20.119Z,11.97
2023-03-27T20:36:53.368Z,11.13
2023-03-27T20:39:22.097Z,12.70
2023-03-27T20:41:51.503Z,12.13
2023-03-27T20:44:19.788Z,13.30
2023-03-27T20:46:52.262Z,9.50
2023-03-27T20:52:02.927Z,10.10
2023-03-27T20:54:31.232Z,6.23
2023-03-27T20:56:59.304Z,9.40
2023-03-27T20:59:28.731Z,9.00
2023-03-27T21:01:59.988Z,10.63
2023-03-27T21:04:29.292Z,8.77
2023-03-27T21:06:58.162Z,11.30
2023-03-27T21:09:27.739Z,11.07
2023-03-27T21:11:56.872Z,10.10
2023-03-27T21:14:25.794Z,12.37
2023-03-27T21:17:02.481Z,10.77
2023-03-27T21:19:31.114Z,15.80
2023-03-27T21:22:00.198Z,14.17
2023-03-27T21:24:31.592Z,11.57
2023-03-27T21:27:00.621Z,11.97
2023-03-27T21:29:37.266Z,12.87
2023-03-27T21:32:06.103Z,11.20
2023-03-27T21:34:34.352Z,10.93
2023-03-27T21:37:03.070Z,11.07
2023-03-27T21:39:31.691Z,13.03
2023-03-27T21:42:03.484Z,11.97
2023-03-27T21:44:31.925Z,10.93
2023-03-27T21:47:00.066Z,10.97
2023-03-27T21:49:31.244Z,11.10
2023-03-27T21:51:59.445Z,11.47
2023-03-27T21:54:27.865Z,11.00
2023-03-27T21:56:56.497Z,10.13
2023-03-27T21:59:25.613Z,11.50
2023-03-27T22:01:56.462Z,10.97
2023-03-27T22:04:24.741Z,13.57
2023-03-27T22:06:53.332Z,13.40
2023-03-27T22:09:25.238Z,19.80
2023-03-27T22:11:56.233Z,19.03
2023-03-27T22:14:32.412Z,20.33
2023-03-27T22:17:01.067Z,17.63
2023-03-27T22:19:40.545Z,18.67
2023-03-27T22:22:12.810Z,17.40
2023-03-27T22:24:41.350Z,15.57
2023-03-27T22:27:09.469Z,15.00
2023-03-27T22:29:38.189Z,11.77
2023-03-27T22:32:10.032Z,13.00
2023-03-27T22:34:38.386Z,11.77
2023-03-27T22:37:07.292Z,11.80
2023-03-27T22:39:35.615Z,12.70
2023-03-27T22:42:03.707Z,12.43
2023-03-27T22:44:36.209Z,12.17
2023-03-27T22:47:08.522Z,14.53
2023-03-27T22:49:37.085Z,11.63
2023-03-27T22:52:06.540Z,12.80
2023-03-27T22:54:35.638Z,10.40
2023-03-27T22:57:03.977Z,11.23
2023-03-27T22:59:32.674Z,10.83
2023-03-27T23:02:01.744Z,10.43
2023-03-27T23:04:30.030Z,11.00
2023-03-27T23:07:01.072Z,10.67
2023-03-27T23:09:29.592Z,11.83
2023-03-27T23:11:57.794Z,11.73
2023-03-27T23:14:26.034Z,14.07
2023-03-27T23:16:54.038Z,11.47
2023-03-27T23:19:22.269Z,11.40
2023-03-27T23:21:51.824Z,9.57
2023-03-27T23:24:20.136Z,9.53
2023-03-27T23:26:48.106Z,9.07
2023-03-27T23:29:16.401Z,11.20
2023-03-27T23:31:44.569Z,10.40
2023-03-27T23:34:12.820Z,9.93
2023-03-27T23:36:41.690Z,9.23
2023-03-27T23:39:12.517Z,11.80
2023-03-27T23:41:41.919Z,8.77
2023-03-27T23:44:10.273Z,9.27
2023-03-27T23:46:39.151Z,11.23
2023-03-27T23:49:07.502Z,12.60
2023-03-27T23:51:38.420Z,9.63
2023-03-27T23:54:07.249Z,8.50
2023-03-27T23:56:35.459Z,9.90
2023-03-27T23:59:03.772Z,10.00
